sensor_id;sensor_type;location;lat;lon;timestamp;P1;durP1;ratioP1;P2;durP2;ratioP2
11743;SDS011;5929;51.906;7.674;2023-05-21T00:00:59;7.65;;;5.05;;
11743;SDS011;5929;51.906;7.674;2023-05-21T00:03:27;8.63;;;5.13;;
11743;SDS011;5929;51.906;7.674;2023-05-21T00:05:55;10.52;;;4.85;;
11743;SDS011;5929;51.906;7.674;2023-05-21T00:08:23;7.15;;;4.70;;
11743;SDS011;5929;51.906;7.674;2023-05-21T00:10:52;8.20;;;4.78;;
11743;SDS011;5929;51.906;7.674;2023-05-21T00:13:19;7.72;;;4.72;;
11743;SDS011;5929;51.906;7.674;2023-05-21T00:15:46;7.63;;;4.95;;
11743;SDS011;5929;51.906;7.674;2023-05-21T00:18:13;7.32;;;4.47;;
11743;SDS011;5929;51.906;7.674;2023-05-21T00:20:40;7.20;;;4.85;;
11743;SDS011;5929;51.906;7.674;2023-05-21T00:23:07;8.23;;;5.03;;
11743;SDS011;5929;51.906;7.674;2023-05-21T00:25:35;7.95;;;4.65;;
11743;SDS011;5929;51.906;7.674;2023-05-21T00:28:02;8.15;;;5.07;;
11743;SDS011;5929;51.906;7.674;2023-05-21T00:30:29;8.60;;;5.22;;
11743;SDS011;5929;51.906;7.674;2023-05-21T00:32:56;9.63;;;4.95;;
11743;SDS011;5929;51.906;7.674;2023-05-21T00:35:28;8.23;;;5.20;;
11743;SDS011;5929;51.906;7.674;2023-05-21T00:37:55;9.45;;;5.57;;
11743;SDS011;5929;51.906;7.674;2023-05-21T00:40:22;8.77;;;5.28;;
11743;SDS011;5929;51.906;7.674;2023-05-21T00:42:52;8.70;;;5.05;;
11743;SDS011;5929;51.906;7.674;2023-05-21T00:45:21;8.10;;;5.50;;
11743;SDS011;5929;51.906;7.674;2023-05-21T00:47:49;9.52;;;5.70;;
11743;SDS011;5929;51.906;7.674;2023-05-21T00:50:18;9.55;;;4.88;;
11743;SDS011;5929;51.906;7.674;2023-05-21T00:52:49;8.13;;;5.65;;
11743;SDS011;5929;51.906;7.674;2023-05-21T00:55:15;10.82;;;5.25;;
11743;SDS011;5929;51.906;7.674;2023-05-21T00:57:42;8.68;;;5.75;;
11743;SDS011;5929;51.906;7.674;2023-05-21T01:00:14;10.02;;;5.40;;
11743;SDS011;5929;51.906;7.674;2023-05-21T01:02:41;9.30;;;5.90;;
11743;SDS011;5929;51.906;7.674;2023-05-21T01:05:09;8.98;;;5.72;;
11743;SDS011;5929;51.906;7.674;2023-05-21T01:07:37;8.63;;;5.43;;
11743;SDS011;5929;51.906;7.674;2023-05-21T01:10:06;9.27;;;5.43;;
11743;SDS011;5929;51.906;7.674;2023-05-21T01:12:35;9.63;;;5.70;;
11743;SDS011;5929;51.906;7.674;2023-05-21T01:15:05;9.40;;;6.03;;
11743;SDS011;5929;51.906;7.674;2023-05-21T01:17:33;9.55;;;6.47;;
11743;SDS011;5929;51.906;7.674;2023-05-21T01:20:00;8.10;;;5.75;;
11743;SDS011;5929;51.906;7.674;2023-05-21T01:22:34;9.38;;;6.10;;
11743;SDS011;5929;51.906;7.674;2023-05-21T01:25:05;10.05;;;5.85;;
11743;SDS011;5929;51.906;7.674;2023-05-21T01:27:32;8.50;;;6.00;;
11743;SDS011;5929;51.906;7.674;2023-05-21T01:29:59;12.07;;;6.60;;
11743;SDS011;5929;51.906;7.674;2023-05-21T01:32:27;9.40;;;6.28;;
11743;SDS011;5929;51.906;7.674;2023-05-21T01:34:59;9.32;;;5.97;;
11743;SDS011;5929;51.906;7.674;2023-05-21T01:37:30;11.45;;;6.72;;
11743;SDS011;5929;51.906;7.674;2023-05-21T01:40:02;10.32;;;6.97;;
11743;SDS011;5929;51.906;7.674;2023-05-21T01:42:35;11.15;;;6.47;;
11743;SDS011;5929;51.906;7.674;2023-05-21T01:45:06;11.38;;;6.38;;
11743;SDS011;5929;51.906;7.674;2023-05-21T01:47:33;9.15;;;6.07;;
11743;SDS011;5929;51.906;7.674;2023-05-21T01:50:03;9.25;;;5.82;;
11743;SDS011;5929;51.906;7.674;2023-05-21T01:52:31;11.10;;;6.25;;
11743;SDS011;5929;51.906;7.674;2023-05-21T01:54:58;10.00;;;6.60;;
11743;SDS011;5929;51.906;7.674;2023-05-21T01:57:26;11.15;;;5.85;;
11743;SDS011;5929;51.906;7.674;2023-05-21T01:59:53;10.80;;;6.30;;
11743;SDS011;5929;51.906;7.674;2023-05-21T02:02:21;10.77;;;6.38;;
11743;SDS011;5929;51.906;7.674;2023-05-21T02:04:48;8.52;;;6.20;;
11743;SDS011;5929;51.906;7.674;2023-05-21T02:07:15;11.57;;;7.05;;
11743;SDS011;5929;51.906;7.674;2023-05-21T02:09:42;8.63;;;6.25;;
11743;SDS011;5929;51.906;7.674;2023-05-21T02:12:09;10.30;;;6.47;;
11743;SDS011;5929;51.906;7.674;2023-05-21T02:14:37;10.10;;;5.78;;
11743;SDS011;5929;51.906;7.674;2023-05-21T02:17:04;11.05;;;6.28;;
11743;SDS011;5929;51.906;7.674;2023-05-21T02:19:32;10.32;;;6.20;;
11743;SDS011;5929;51.906;7.674;2023-05-21T02:21:58;9.90;;;6.28;;
11743;SDS011;5929;51.906;7.674;2023-05-21T02:24:25;12.52;;;7.18;;
11743;SDS011;5929;51.906;7.674;2023-05-21T02:26:53;10.50;;;6.72;;
11743;SDS011;5929;51.906;7.674;2023-05-21T02:29:20;9.80;;;6.72;;
11743;SDS011;5929;51.906;7.674;2023-05-21T02:31:48;11.00;;;6.75;;
11743;SDS011;5929;51.906;7.674;2023-05-21T02:34:15;12.32;;;6.65;;
11743;SDS011;5929;51.906;7.674;2023-05-21T02:36:44;12.60;;;7.20;;
11743;SDS011;5929;51.906;7.674;2023-05-21T02:39:12;9.27;;;6.45;;
11743;SDS011;5929;51.906;7.674;2023-05-21T02:41:39;9.15;;;6.68;;
11743;SDS011;5929;51.906;7.674;2023-05-21T02:44:06;12.82;;;6.90;;
11743;SDS011;5929;51.906;7.674;2023-05-21T02:46:33;11.90;;;6.68;;
11743;SDS011;5929;51.906;7.674;2023-05-21T02:49:01;10.93;;;6.95;;
11743;SDS011;5929;51.906;7.674;2023-05-21T02:51:28;9.60;;;6.55;;
11743;SDS011;5929;51.906;7.674;2023-05-21T02:53:54;9.40;;;6.65;;
11743;SDS011;5929;51.906;7.674;2023-05-21T02:56:24;12.13;;;6.88;;
11743;SDS011;5929;51.906;7.674;2023-05-21T02:58:51;11.25;;;6.97;;
11743;SDS011;5929;51.906;7.674;2023-05-21T03:01:18;8.85;;;6.57;;
11743;SDS011;5929;51.906;7.674;2023-05-21T03:03:45;11.68;;;6.82;;
11743;SDS011;5929;51.906;7.674;2023-05-21T03:06:13;12.55;;;7.05;;
11743;SDS011;5929;51.906;7.674;2023-05-21T03:08:40;11.45;;;7.80;;
11743;SDS011;5929;51.906;7.674;2023-05-21T03:11:07;10.98;;;6.57;;
11743;SDS011;5929;51.906;7.674;2023-05-21T03:13:34;14.13;;;7.35;;
11743;SDS011;5929;51.906;7.674;2023-05-21T03:16:00;12.35;;;6.82;;
11743;SDS011;5929;51.906;7.674;2023-05-21T03:18:27;11.02;;;7.18;;
11743;SDS011;5929;51.906;7.674;2023-05-21T03:20:54;11.02;;;7.45;;
11743;SDS011;5929;51.906;7.674;2023-05-21T03:23:26;11.77;;;7.45;;
11743;SDS011;5929;51.906;7.674;2023-05-21T03:25:53;10.20;;;7.55;;
11743;SDS011;5929;51.906;7.674;2023-05-21T03:28:20;11.43;;;8.45;;
11743;SDS011;5929;51.906;7.674;2023-05-21T03:30:47;12.00;;;7.63;;
11743;SDS011;5929;51.906;7.674;2023-05-21T03:33:15;11.48;;;7.85;;
11743;SDS011;5929;51.906;7.674;2023-05-21T03:35:41;12.38;;;8.07;;
11743;SDS011;5929;51.906;7.674;2023-05-21T03:38:08;14.98;;;8.38;;
11743;SDS011;5929;51.906;7.674;2023-05-21T03:40:36;13.13;;;8.65;;
11743;SDS011;5929;51.906;7.674;2023-05-21T03:43:03;13.95;;;7.70;;
11743;SDS011;5929;51.906;7.674;2023-05-21T03:45:30;12.60;;;8.15;;
11743;SDS011;5929;51.906;7.674;2023-05-21T03:47:57;13.18;;;8.77;;
11743;SDS011;5929;51.906;7.674;2023-05-21T03:50:25;11.57;;;7.85;;
11743;SDS011;5929;51.906;7.674;2023-05-21T03:52:52;13.75;;;7.85;;
11743;SDS011;5929;51.906;7.674;2023-05-21T03:55:19;10.73;;;7.32;;
11743;SDS011;5929;51.906;7.674;2023-05-21T03:57:47;11.75;;;8.43;;
11743;SDS011;5929;51.906;7.674;2023-05-21T04:00:14;13.82;;;8.15;;
11743;SDS011;5929;51.906;7.674;2023-05-21T04:02:41;13.20;;;7.85;;
11743;SDS011;5929;51.906;7.674;2023-05-21T04:05:08;12.13;;;8.18;;
11743;SDS011;5929;51.906;7.674;2023-05-21T04:07:35;12.80;;;8.65;;
11743;SDS011;5929;51.906;7.674;2023-05-21T04:10:03;11.98;;;7.93;;
11743;SDS011;5929;51.906;7.674;2023-05-21T04:12:30;14.30;;;8.30;;
11743;SDS011;5929;51.906;7.674;2023-05-21T04:14:58;12.32;;;7.53;;
11743;SDS011;5929;51.906;7.674;2023-05-21T04:17:26;10.95;;;8.30;;
11743;SDS011;5929;51.906;7.674;2023-05-21T04:19:53;13.43;;;8.68;;
11743;SDS011;5929;51.906;7.674;2023-05-21T04:22:20;12.57;;;8.30;;
11743;SDS011;5929;51.906;7.674;2023-05-21T04:24:47;14.00;;;8.80;;
11743;SDS011;5929;51.906;7.674;2023-05-21T04:27:14;10.88;;;7.82;;
11743;SDS011;5929;51.906;7.674;2023-05-21T04:29:41;11.35;;;7.75;;
11743;SDS011;5929;51.906;7.674;2023-05-21T04:32:09;12.13;;;8.52;;
11743;SDS011;5929;51.906;7.674;2023-05-21T04:34:39;11.80;;;7.80;;
11743;SDS011;5929;51.906;7.674;2023-05-21T04:37:06;12.02;;;8.40;;
11743;SDS011;5929;51.906;7.674;2023-05-21T04:39:35;12.75;;;8.13;;
11743;SDS011;5929;51.906;7.674;2023-05-21T04:42:02;11.68;;;7.90;;
11743;SDS011;5929;51.906;7.674;2023-05-21T04:44:29;14.00;;;8.50;;
11743;SDS011;5929;51.906;7.674;2023-05-21T04:46:56;17.98;;;8.82;;
11743;SDS011;5929;51.906;7.674;2023-05-21T04:49:24;11.98;;;8.52;;
11743;SDS011;5929;51.906;7.674;2023-05-21T04:51:53;11.98;;;8.38;;
11743;SDS011;5929;51.906;7.674;2023-05-21T04:54:22;11.73;;;7.82;;
11743;SDS011;5929;51.906;7.674;2023-05-21T04:56:49;11.25;;;8.00;;
11743;SDS011;5929;51.906;7.674;2023-05-21T04:59:16;12.52;;;7.97;;
11743;SDS011;5929;51.906;7.674;2023-05-21T05:01:44;13.52;;;8.65;;
11743;SDS011;5929;51.906;7.674;2023-05-21T05:04:11;11.60;;;8.48;;
11743;SDS011;5929;51.906;7.674;2023-05-21T05:06:39;10.23;;;7.53;;
11743;SDS011;5929;51.906;7.674;2023-05-21T05:09:06;12.45;;;8.23;;
11743;SDS011;5929;51.906;7.674;2023-05-21T05:11:33;10.95;;;8.10;;
11743;SDS011;5929;51.906;7.674;2023-05-21T05:14:02;14.48;;;8.13;;
11743;SDS011;5929;51.906;7.674;2023-05-21T05:16:28;14.23;;;8.65;;
11743;SDS011;5929;51.906;7.674;2023-05-21T05:18:55;12.82;;;8.30;;
11743;SDS011;5929;51.906;7.674;2023-05-21T05:21:22;11.45;;;7.97;;
11743;SDS011;5929;51.906;7.674;2023-05-21T05:23:50;12.57;;;8.20;;
11743;SDS011;5929;51.906;7.674;2023-05-21T05:26:17;12.13;;;8.60;;
11743;SDS011;5929;51.906;7.674;2023-05-21T05:28:45;12.38;;;7.82;;
11743;SDS011;5929;51.906;7.674;2023-05-21T05:31:12;10.32;;;7.78;;
11743;SDS011;5929;51.906;7.674;2023-05-21T05:33:39;11.88;;;8.65;;
11743;SDS011;5929;51.906;7.674;2023-05-21T05:36:06;11.73;;;8.63;;
11743;SDS011;5929;51.906;7.674;2023-05-21T05:38:33;12.40;;;8.90;;
11743;SDS011;5929;51.906;7.674;2023-05-21T05:41:03;18.40;;;8.45;;
11743;SDS011;5929;51.906;7.674;2023-05-21T05:43:30;14.00;;;8.40;;
11743;SDS011;5929;51.906;7.674;2023-05-21T05:45:57;12.82;;;8.57;;
11743;SDS011;5929;51.906;7.674;2023-05-21T05:48:24;13.48;;;8.23;;
11743;SDS011;5929;51.906;7.674;2023-05-21T05:50:51;12.60;;;8.57;;
11743;SDS011;5929;51.906;7.674;2023-05-21T05:53:20;11.45;;;8.63;;
11743;SDS011;5929;51.906;7.674;2023-05-21T05:55:46;12.80;;;7.90;;
11743;SDS011;5929;51.906;7.674;2023-05-21T05:58:15;14.15;;;9.27;;
11743;SDS011;5929;51.906;7.674;2023-05-21T06:00:42;10.98;;;8.68;;
11743;SDS011;5929;51.906;7.674;2023-05-21T06:03:09;12.65;;;8.23;;
11743;SDS011;5929;51.906;7.674;2023-05-21T06:05:36;13.68;;;8.98;;
11743;SDS011;5929;51.906;7.674;2023-05-21T06:08:03;12.82;;;8.85;;
11743;SDS011;5929;51.906;7.674;2023-05-21T06:10:30;13.13;;;8.98;;
11743;SDS011;5929;51.906;7.674;2023-05-21T06:12:59;11.20;;;8.65;;
11743;SDS011;5929;51.906;7.674;2023-05-21T06:15:27;13.23;;;8.35;;
11743;SDS011;5929;51.906;7.674;2023-05-21T06:17:54;13.75;;;8.88;;
11743;SDS011;5929;51.906;7.674;2023-05-21T06:20:21;11.20;;;8.73;;
11743;SDS011;5929;51.906;7.674;2023-05-21T06:22:48;12.93;;;8.68;;
11743;SDS011;5929;51.906;7.674;2023-05-21T06:25:15;14.48;;;8.95;;
11743;SDS011;5929;51.906;7.674;2023-05-21T06:27:42;11.18;;;8.88;;
11743;SDS011;5929;51.906;7.674;2023-05-21T06:30:11;9.98;;;7.78;;
11743;SDS011;5929;51.906;7.674;2023-05-21T06:32:39;13.25;;;9.35;;
11743;SDS011;5929;51.906;7.674;2023-05-21T06:35:06;12.48;;;8.45;;
11743;SDS011;5929;51.906;7.674;2023-05-21T06:37:34;12.93;;;8.98;;
11743;SDS011;5929;51.906;7.674;2023-05-21T06:40:01;16.27;;;9.38;;
11743;SDS011;5929;51.906;7.674;2023-05-21T06:42:28;12.63;;;9.10;;
11743;SDS011;5929;51.906;7.674;2023-05-21T06:44:55;11.80;;;7.95;;
11743;SDS011;5929;51.906;7.674;2023-05-21T06:47:22;12.38;;;8.55;;
11743;SDS011;5929;51.906;7.674;2023-05-21T06:49:50;12.63;;;8.80;;
11743;SDS011;5929;51.906;7.674;2023-05-21T06:52:17;13.13;;;8.77;;
11743;SDS011;5929;51.906;7.674;2023-05-21T06:54:44;12.50;;;9.20;;
11743;SDS011;5929;51.906;7.674;2023-05-21T06:57:10;12.80;;;8.98;;
11743;SDS011;5929;51.906;7.674;2023-05-21T06:59:38;13.10;;;8.82;;
11743;SDS011;5929;51.906;7.674;2023-05-21T07:02:05;12.10;;;8.55;;
11743;SDS011;5929;51.906;7.674;2023-05-21T07:04:34;14.77;;;9.25;;
11743;SDS011;5929;51.906;7.674;2023-05-21T07:07:03;14.27;;;8.80;;
11743;SDS011;5929;51.906;7.674;2023-05-21T07:09:29;12.18;;;9.05;;
11743;SDS011;5929;51.906;7.674;2023-05-21T07:11:56;11.88;;;8.23;;
11743;SDS011;5929;51.906;7.674;2023-05-21T07:14:23;10.90;;;7.53;;
11743;SDS011;5929;51.906;7.674;2023-05-21T07:16:50;14.07;;;9.07;;
11743;SDS011;5929;51.906;7.674;2023-05-21T07:19:17;13.95;;;8.40;;
11743;SDS011;5929;51.906;7.674;2023-05-21T07:21:44;11.75;;;8.13;;
11743;SDS011;5929;51.906;7.674;2023-05-21T07:24:12;11.52;;;8.35;;
11743;SDS011;5929;51.906;7.674;2023-05-21T07:26:39;11.23;;;7.88;;
11743;SDS011;5929;51.906;7.674;2023-05-21T07:29:07;12.65;;;8.45;;
11743;SDS011;5929;51.906;7.674;2023-05-21T07:31:33;15.70;;;8.23;;
11743;SDS011;5929;51.906;7.674;2023-05-21T07:34:00;13.80;;;8.40;;
11743;SDS011;5929;51.906;7.674;2023-05-21T07:36:27;11.30;;;8.73;;
11743;SDS011;5929;51.906;7.674;2023-05-21T07:38:55;12.60;;;8.82;;
11743;SDS011;5929;51.906;7.674;2023-05-21T07:41:23;11.05;;;8.48;;
11743;SDS011;5929;51.906;7.674;2023-05-21T07:43:50;11.20;;;8.20;;
11743;SDS011;5929;51.906;7.674;2023-05-21T07:46:17;12.50;;;8.65;;
11743;SDS011;5929;51.906;7.674;2023-05-21T07:48:43;11.55;;;8.15;;
11743;SDS011;5929;51.906;7.674;2023-05-21T07:51:10;11.40;;;7.85;;
11743;SDS011;5929;51.906;7.674;2023-05-21T07:53:37;10.48;;;8.30;;
11743;SDS011;5929;51.906;7.674;2023-05-21T07:56:05;12.07;;;8.50;;
11743;SDS011;5929;51.906;7.674;2023-05-21T07:58:33;17.02;;;9.27;;
11743;SDS011;5929;51.906;7.674;2023-05-21T08:01:00;11.40;;;7.97;;
11743;SDS011;5929;51.906;7.674;2023-05-21T08:03:27;11.40;;;8.90;;
11743;SDS011;5929;51.906;7.674;2023-05-21T08:05:55;12.50;;;8.73;;
11743;SDS011;5929;51.906;7.674;2023-05-21T08:08:22;13.30;;;8.88;;
11743;SDS011;5929;51.906;7.674;2023-05-21T08:10:49;13.40;;;9.38;;
11743;SDS011;5929;51.906;7.674;2023-05-21T08:13:16;13.90;;;8.68;;
11743;SDS011;5929;51.906;7.674;2023-05-21T08:15:44;12.10;;;8.70;;
11743;SDS011;5929;51.906;7.674;2023-05-21T08:18:11;12.15;;;8.68;;
11743;SDS011;5929;51.906;7.674;2023-05-21T08:20:38;14.38;;;8.82;;
11743;SDS011;5929;51.906;7.674;2023-05-21T08:23:05;13.93;;;9.32;;
11743;SDS011;5929;51.906;7.674;2023-05-21T08:25:32;13.45;;;9.68;;
11743;SDS011;5929;51.906;7.674;2023-05-21T08:27:59;13.02;;;9.35;;
11743;SDS011;5929;51.906;7.674;2023-05-21T08:30:25;12.27;;;9.40;;
11743;SDS011;5929;51.906;7.674;2023-05-21T08:32:53;18.60;;;9.27;;
11743;SDS011;5929;51.906;7.674;2023-05-21T08:35:20;13.25;;;8.82;;
11743;SDS011;5929;51.906;7.674;2023-05-21T08:37:47;11.20;;;8.45;;
11743;SDS011;5929;51.906;7.674;2023-05-21T08:40:14;11.63;;;8.88;;
11743;SDS011;5929;51.906;7.674;2023-05-21T08:42:42;12.80;;;9.27;;
11743;SDS011;5929;51.906;7.674;2023-05-21T08:45:10;13.32;;;9.70;;
11743;SDS011;5929;51.906;7.674;2023-05-21T08:47:39;15.20;;;9.82;;
11743;SDS011;5929;51.906;7.674;2023-05-21T08:50:09;15.23;;;9.30;;
11743;SDS011;5929;51.906;7.674;2023-05-21T08:52:37;11.48;;;8.82;;
11743;SDS011;5929;51.906;7.674;2023-05-21T08:55:04;14.75;;;9.52;;
11743;SDS011;5929;51.906;7.674;2023-05-21T08:57:32;11.85;;;9.13;;
11743;SDS011;5929;51.906;7.674;2023-05-21T08:59:59;11.70;;;8.70;;
11743;SDS011;5929;51.906;7.674;2023-05-21T09:02:26;13.85;;;9.52;;
11743;SDS011;5929;51.906;7.674;2023-05-21T09:04:58;15.73;;;10.07;;
11743;SDS011;5929;51.906;7.674;2023-05-21T09:07:28;13.82;;;10.05;;
11743;SDS011;5929;51.906;7.674;2023-05-21T09:09:57;13.48;;;9.20;;
11743;SDS011;5929;51.906;7.674;2023-05-21T09:12:30;16.48;;;9.02;;
11743;SDS011;5929;51.906;7.674;2023-05-21T09:14:57;15.60;;;9.35;;
11743;SDS011;5929;51.906;7.674;2023-05-21T09:17:25;12.68;;;9.60;;
11743;SDS011;5929;51.906;7.674;2023-05-21T09:20:05;15.05;;;10.02;;
11743;SDS011;5929;51.906;7.674;2023-05-21T09:22:37;13.25;;;9.98;;
11743;SDS011;5929;51.906;7.674;2023-05-21T09:25:07;13.77;;;9.93;;
11743;SDS011;5929;51.906;7.674;2023-05-21T09:27:35;12.82;;;9.55;;
11743;SDS011;5929;51.906;7.674;2023-05-21T09:30:02;14.00;;;10.02;;
11743;SDS011;5929;51.906;7.674;2023-05-21T09:32:33;12.85;;;9.15;;
11743;SDS011;5929;51.906;7.674;2023-05-21T09:35:05;13.57;;;9.60;;
11743;SDS011;5929;51.906;7.674;2023-05-21T09:37:38;11.30;;;8.90;;
11743;SDS011;5929;51.906;7.674;2023-05-21T09:40:11;14.07;;;10.68;;
11743;SDS011;5929;51.906;7.674;2023-05-21T09:42:39;13.48;;;10.60;;
11743;SDS011;5929;51.906;7.674;2023-05-21T09:45:07;12.80;;;10.40;;
11743;SDS011;5929;51.906;7.674;2023-05-21T09:47:39;16.60;;;11.25;;
11743;SDS011;5929;51.906;7.674;2023-05-21T09:50:07;15.52;;;10.43;;
11743;SDS011;5929;51.906;7.674;2023-05-21T09:52:35;14.70;;;10.60;;
11743;SDS011;5929;51.906;7.674;2023-05-21T09:55:03;16.08;;;11.68;;
11743;SDS011;5929;51.906;7.674;2023-05-21T09:57:30;13.85;;;11.20;;
11743;SDS011;5929;51.906;7.674;2023-05-21T09:59:57;16.92;;;11.32;;
11743;SDS011;5929;51.906;7.674;2023-05-21T10:02:24;15.52;;;9.77;;
11743;SDS011;5929;51.906;7.674;2023-05-21T10:04:51;14.13;;;10.90;;
11743;SDS011;5929;51.906;7.674;2023-05-21T10:07:21;15.20;;;11.63;;
11743;SDS011;5929;51.906;7.674;2023-05-21T10:09:51;13.07;;;10.45;;
11743;SDS011;5929;51.906;7.674;2023-05-21T10:12:22;14.63;;;10.82;;
11743;SDS011;5929;51.906;7.674;2023-05-21T10:14:53;14.68;;;10.98;;
11743;SDS011;5929;51.906;7.674;2023-05-21T10:17:29;17.23;;;11.85;;
11743;SDS011;5929;51.906;7.674;2023-05-21T10:19:58;14.60;;;11.30;;
11743;SDS011;5929;51.906;7.674;2023-05-21T10:22:27;13.48;;;10.55;;
11743;SDS011;5929;51.906;7.674;2023-05-21T10:24:55;16.02;;;12.20;;
11743;SDS011;5929;51.906;7.674;2023-05-21T10:27:25;15.45;;;11.60;;
11743;SDS011;5929;51.906;7.674;2023-05-21T10:29:54;15.70;;;11.77;;
11743;SDS011;5929;51.906;7.674;2023-05-21T10:32:22;14.93;;;11.90;;
11743;SDS011;5929;51.906;7.674;2023-05-21T10:34:51;14.75;;;11.38;;
11743;SDS011;5929;51.906;7.674;2023-05-21T10:37:19;15.18;;;11.18;;
11743;SDS011;5929;51.906;7.674;2023-05-21T10:39:48;18.17;;;12.60;;
11743;SDS011;5929;51.906;7.674;2023-05-21T10:42:17;14.82;;;11.93;;
11743;SDS011;5929;51.906;7.674;2023-05-21T10:44:55;13.73;;;11.43;;
11743;SDS011;5929;51.906;7.674;2023-05-21T10:50:27;17.63;;;13.18;;
11743;SDS011;5929;51.906;7.674;2023-05-21T10:53:15;19.38;;;14.00;;
11743;SDS011;5929;51.906;7.674;2023-05-21T10:55:52;20.67;;;14.63;;
11743;SDS011;5929;51.906;7.674;2023-05-21T10:58:36;18.80;;;12.93;;
11743;SDS011;5929;51.906;7.674;2023-05-21T11:01:17;16.85;;;12.95;;
11743;SDS011;5929;51.906;7.674;2023-05-21T11:03:44;18.42;;;14.27;;
11743;SDS011;5929;51.906;7.674;2023-05-21T11:06:12;17.92;;;12.82;;
11743;SDS011;5929;51.906;7.674;2023-05-21T11:08:48;18.10;;;12.82;;
11743;SDS011;5929;51.906;7.674;2023-05-21T11:17:12;16.00;;;11.75;;
11743;SDS011;5929;51.906;7.674;2023-05-21T11:19:41;16.67;;;11.80;;
11743;SDS011;5929;51.906;7.674;2023-05-21T11:22:20;16.55;;;12.77;;
11743;SDS011;5929;51.906;7.674;2023-05-21T11:24:48;14.80;;;11.77;;
11743;SDS011;5929;51.906;7.674;2023-05-21T11:27:28;17.60;;;12.88;;
11743;SDS011;5929;51.906;7.674;2023-05-21T11:29:57;16.10;;;12.55;;
11743;SDS011;5929;51.906;7.674;2023-05-21T11:32:26;14.82;;;12.90;;
11743;SDS011;5929;51.906;7.674;2023-05-21T11:34:54;15.43;;;12.73;;
11743;SDS011;5929;51.906;7.674;2023-05-21T11:43:00;16.45;;;11.60;;
11743;SDS011;5929;51.906;7.674;2023-05-21T11:45:28;16.77;;;13.02;;
11743;SDS011;5929;51.906;7.674;2023-05-21T11:47:57;17.00;;;12.75;;
11743;SDS011;5929;51.906;7.674;2023-05-21T11:50:25;18.77;;;12.88;;
11743;SDS011;5929;51.906;7.674;2023-05-21T11:52:54;15.50;;;12.70;;
11743;SDS011;5929;51.906;7.674;2023-05-21T11:55:23;19.13;;;12.93;;
11743;SDS011;5929;51.906;7.674;2023-05-21T11:57:51;17.77;;;13.95;;
11743;SDS011;5929;51.906;7.674;2023-05-21T12:00:21;16.00;;;12.60;;
11743;SDS011;5929;51.906;7.674;2023-05-21T12:02:49;18.10;;;13.43;;
11743;SDS011;5929;51.906;7.674;2023-05-21T12:05:18;17.73;;;12.77;;
11743;SDS011;5929;51.906;7.674;2023-05-21T12:07:45;16.83;;;12.73;;
11743;SDS011;5929;51.906;7.674;2023-05-21T12:10:14;15.75;;;12.18;;
11743;SDS011;5929;51.906;7.674;2023-05-21T12:12:41;15.07;;;12.52;;
11743;SDS011;5929;51.906;7.674;2023-05-21T12:15:09;16.42;;;13.13;;
11743;SDS011;5929;51.906;7.674;2023-05-21T12:17:37;14.70;;;10.93;;
11743;SDS011;5929;51.906;7.674;2023-05-21T12:20:04;17.88;;;12.75;;
11743;SDS011;5929;51.906;7.674;2023-05-21T12:22:36;15.30;;;12.73;;
11743;SDS011;5929;51.906;7.674;2023-05-21T12:25:06;16.13;;;11.95;;
11743;SDS011;5929;51.906;7.674;2023-05-21T12:27:36;15.98;;;12.68;;
11743;SDS011;5929;51.906;7.674;2023-05-21T12:30:03;13.75;;;10.93;;
11743;SDS011;5929;51.906;7.674;2023-05-21T12:32:32;15.63;;;12.88;;
11743;SDS011;5929;51.906;7.674;2023-05-21T12:34:59;14.93;;;12.45;;
11743;SDS011;5929;51.906;7.674;2023-05-21T12:37:27;17.38;;;12.77;;
11743;SDS011;5929;51.906;7.674;2023-05-21T12:39:58;16.65;;;12.10;;
11743;SDS011;5929;51.906;7.674;2023-05-21T12:42:26;15.73;;;12.38;;
11743;SDS011;5929;51.906;7.674;2023-05-21T12:44:54;14.27;;;11.82;;
11743;SDS011;5929;51.906;7.674;2023-05-21T12:47:22;13.87;;;11.73;;
11743;SDS011;5929;51.906;7.674;2023-05-21T12:49:52;14.60;;;12.10;;
11743;SDS011;5929;51.906;7.674;2023-05-21T12:52:20;13.90;;;11.68;;
11743;SDS011;5929;51.906;7.674;2023-05-21T12:54:48;15.15;;;11.95;;
11743;SDS011;5929;51.906;7.674;2023-05-21T12:57:17;13.32;;;11.85;;
11743;SDS011;5929;51.906;7.674;2023-05-21T12:59:47;16.05;;;12.93;;
11743;SDS011;5929;51.906;7.674;2023-05-21T13:02:18;13.35;;;10.60;;
11743;SDS011;5929;51.906;7.674;2023-05-21T13:04:52;15.80;;;12.57;;
11743;SDS011;5929;51.906;7.674;2023-05-21T13:07:20;14.25;;;11.63;;
11743;SDS011;5929;51.906;7.674;2023-05-21T13:09:47;14.60;;;11.77;;
11743;SDS011;5929;51.906;7.674;2023-05-21T13:12:18;14.02;;;12.00;;
11743;SDS011;5929;51.906;7.674;2023-05-21T13:14:46;14.75;;;12.48;;
11743;SDS011;5929;51.906;7.674;2023-05-21T13:17:15;16.15;;;11.85;;
11743;SDS011;5929;51.906;7.674;2023-05-21T13:19:45;13.73;;;11.43;;
11743;SDS011;5929;51.906;7.674;2023-05-21T13:22:32;15.80;;;12.82;;
11743;SDS011;5929;51.906;7.674;2023-05-21T13:25:00;16.77;;;12.82;;
11743;SDS011;5929;51.906;7.674;2023-05-21T13:27:28;17.25;;;13.65;;
11743;SDS011;5929;51.906;7.674;2023-05-21T13:29:55;17.10;;;12.85;;
11743;SDS011;5929;51.906;7.674;2023-05-21T13:32:22;15.95;;;12.02;;
11743;SDS011;5929;51.906;7.674;2023-05-21T13:34:49;15.93;;;12.43;;
11743;SDS011;5929;51.906;7.674;2023-05-21T13:37:15;15.38;;;12.40;;
11743;SDS011;5929;51.906;7.674;2023-05-21T13:39:44;16.80;;;12.95;;
11743;SDS011;5929;51.906;7.674;2023-05-21T13:42:10;16.00;;;12.80;;
11743;SDS011;5929;51.906;7.674;2023-05-21T13:44:39;14.43;;;11.90;;
11743;SDS011;5929;51.906;7.674;2023-05-21T13:47:06;14.55;;;12.18;;
11743;SDS011;5929;51.906;7.674;2023-05-21T13:49:34;16.40;;;13.40;;
11743;SDS011;5929;51.906;7.674;2023-05-21T13:52:02;19.05;;;13.18;;
11743;SDS011;5929;51.906;7.674;2023-05-21T13:54:29;19.13;;;13.18;;
11743;SDS011;5929;51.906;7.674;2023-05-21T13:56:57;14.88;;;11.85;;
11743;SDS011;5929;51.906;7.674;2023-05-21T13:59:24;16.60;;;12.25;;
11743;SDS011;5929;51.906;7.674;2023-05-21T14:01:52;14.50;;;12.23;;
11743;SDS011;5929;51.906;7.674;2023-05-21T14:04:19;14.68;;;13.02;;
11743;SDS011;5929;51.906;7.674;2023-05-21T14:06:46;14.75;;;12.98;;
11743;SDS011;5929;51.906;7.674;2023-05-21T14:09:13;15.57;;;13.80;;
11743;SDS011;5929;51.906;7.674;2023-05-21T14:11:40;16.88;;;12.98;;
11743;SDS011;5929;51.906;7.674;2023-05-21T14:14:07;14.40;;;12.60;;
11743;SDS011;5929;51.906;7.674;2023-05-21T14:16:36;13.27;;;11.90;;
11743;SDS011;5929;51.906;7.674;2023-05-21T14:19:04;17.08;;;12.75;;
11743;SDS011;5929;51.906;7.674;2023-05-21T14:21:31;13.43;;;11.95;;
11743;SDS011;5929;51.906;7.674;2023-05-21T14:23:58;14.75;;;12.00;;
11743;SDS011;5929;51.906;7.674;2023-05-21T14:26:25;14.93;;;12.32;;
11743;SDS011;5929;51.906;7.674;2023-05-21T14:28:52;15.30;;;12.05;;
11743;SDS011;5929;51.906;7.674;2023-05-21T14:31:18;13.82;;;11.02;;
11743;SDS011;5929;51.906;7.674;2023-05-21T14:33:47;13.23;;;11.82;;
11743;SDS011;5929;51.906;7.674;2023-05-21T14:36:15;15.57;;;11.90;;
11743;SDS011;5929;51.906;7.674;2023-05-21T14:38:42;13.40;;;11.32;;
11743;SDS011;5929;51.906;7.674;2023-05-21T14:41:09;13.02;;;11.60;;
11743;SDS011;5929;51.906;7.674;2023-05-21T14:43:36;12.18;;;10.88;;
11743;SDS011;5929;51.906;7.674;2023-05-21T14:46:03;16.23;;;10.68;;
11743;SDS011;5929;51.906;7.674;2023-05-21T14:48:32;14.23;;;11.93;;
11743;SDS011;5929;51.906;7.674;2023-05-21T14:50:59;18.33;;;12.02;;
11743;SDS011;5929;51.906;7.674;2023-05-21T14:53:29;14.52;;;11.85;;
11743;SDS011;5929;51.906;7.674;2023-05-21T14:55:56;14.50;;;11.13;;
11743;SDS011;5929;51.906;7.674;2023-05-21T14:58:23;14.80;;;11.82;;
11743;SDS011;5929;51.906;7.674;2023-05-21T15:00:50;15.55;;;11.65;;
11743;SDS011;5929;51.906;7.674;2023-05-21T15:03:16;13.75;;;10.57;;
11743;SDS011;5929;51.906;7.674;2023-05-21T15:05:43;15.23;;;11.52;;